sensor_id;sensor_type;location;lat;lon;timestamp;pressure;altitude;pressure_sealevel;temperature;humidity
63556;BME280;49700;48.072;7.800;2023-01-31T00:01:22;100715.16;;;3.16;70.53
63556;BME280;49700;48.072;7.800;2023-01-31T00:03:52;100704.84;;;3.10;70.70
63556;BME280;49700;48.072;7.800;2023-01-31T00:06:21;100719.69;;;3.02;70.56
63556;BME280;49700;48.072;7.800;2023-01-31T00:08:54;100714.59;;;2.96;70.58
63556;BME280;49700;48.072;7.800;2023-01-31T00:11:30;100714.69;;;2.90;70.92
63556;BME280;49700;48.072;7.800;2023-01-31T00:13:57;100711.28;;;2.84;70.67
63556;BME280;49700;48.072;7.800;2023-01-31T00:16:23;100706.16;;;2.81;70.92
63556;BME280;49700;48.072;7.800;2023-01-31T00:18:49;100707.91;;;2.79;71.28
63556;BME280;49700;48.072;7.800;2023-01-31T00:21:20;100703.59;;;2.77;70.75
63556;BME280;49700;48.072;7.800;2023-01-31T00:23:47;100697.56;;;2.76;71.01
63556;BME280;49700;48.072;7.800;2023-01-31T00:26:19;100696.72;;;2.76;70.70
63556;BME280;49700;48.072;7.800;2023-01-31T00:28:47;100700.16;;;2.75;70.78
63556;BME280;49700;48.072;7.800;2023-01-31T00:31:14;100701.91;;;2.73;70.49
63556;BME280;49700;48.072;7.800;2023-01-31T00:33:42;100692.47;;;2.70;70.55
63556;BME280;49700;48.072;7.800;2023-01-31T00:36:10;100689.91;;;2.67;70.72
63556;BME280;49700;48.072;7.800;2023-01-31T00:38:37;100695.97;;;2.66;70.76
63556;BME280;49700;48.072;7.800;2023-01-31T00:41:02;100699.47;;;2.63;70.82
63556;BME280;49700;48.072;7.800;2023-01-31T00:43:30;100700.41;;;2.59;70.78
63556;BME280;49700;48.072;7.800;2023-01-31T00:45:56;100698.72;;;2.55;70.79
63556;BME280;49700;48.072;7.800;2023-01-31T00:48:23;100706.53;;;2.52;70.62
63556;BME280;49700;48.072;7.800;2023-01-31T00:50:48;100697.09;;;2.45;70.63
63556;BME280;49700;48.072;7.800;2023-01-31T00:53:14;100694.59;;;2.40;70.70
63556;BME280;49700;48.072;7.800;2023-01-31T00:55:41;100696.38;;;2.35;70.59
63556;BME280;49700;48.072;7.800;2023-01-31T00:58:07;100693.00;;;2.29;70.67
63556;BME280;49700;48.072;7.800;2023-01-31T01:00:32;100683.56;;;2.25;70.66
63556;BME280;49700;48.072;7.800;2023-01-31T01:02:58;100695.69;;;2.21;70.91
63556;BME280;49700;48.072;7.800;2023-01-31T01:05:23;100687.97;;;2.16;71.06
63556;BME280;49700;48.072;7.800;2023-01-31T01:07:48;100686.28;;;2.14;70.98
63556;BME280;49700;48.072;7.800;2023-01-31T01:10:15;100684.53;;;2.13;70.76
63556;BME280;49700;48.072;7.800;2023-01-31T01:12:40;100682.84;;;2.12;70.98
63556;BME280;49700;48.072;7.800;2023-01-31T01:15:06;100678.53;;;2.11;70.79
63556;BME280;49700;48.072;7.800;2023-01-31T01:17:32;100673.41;;;2.06;70.48
63556;BME280;49700;48.072;7.800;2023-01-31T01:19:57;100681.19;;;2.05;70.87
63556;BME280;49700;48.072;7.800;2023-01-31T01:22:27;100674.28;;;2.04;70.96
63556;BME280;49700;48.072;7.800;2023-01-31T01:24:53;100678.63;;;2.02;70.99
63556;BME280;49700;48.072;7.800;2023-01-31T01:27:18;100689.94;;;1.94;70.79
63556;BME280;49700;48.072;7.800;2023-01-31T01:29:44;100683.13;;;1.87;70.58
63556;BME280;49700;48.072;7.800;2023-01-31T01:32:09;100679.78;;;1.76;70.93
63556;BME280;49700;48.072;7.800;2023-01-31T01:34:38;100681.63;;;1.65;71.27
63556;BME280;49700;48.072;7.800;2023-01-31T01:37:14;100676.56;;;1.52;71.92
63556;BME280;49700;48.072;7.800;2023-01-31T01:39:57;100687.91;;;1.41;72.07
63556;BME280;49700;48.072;7.800;2023-01-31T01:42:38;100689.63;;;1.37;72.38
63556;BME280;49700;48.072;7.800;2023-01-31T01:45:15;100687.97;;;1.30;72.69
63556;BME280;49700;48.072;7.800;2023-01-31T01:47:51;100686.31;;;1.23;73.04
63556;BME280;49700;48.072;7.800;2023-01-31T01:50:35;100680.31;;;1.19;72.88
63556;BME280;49700;48.072;7.800;2023-01-31T01:53:25;100683.72;;;1.23;72.91
63556;BME280;49700;48.072;7.800;2023-01-31T01:56:22;100687.97;;;1.28;73.06
63556;BME280;49700;48.072;7.800;2023-01-31T01:59:11;100679.34;;;1.32;72.87
63556;BME280;49700;48.072;7.800;2023-01-31T02:01:49;100694.84;;;1.34;72.66
63556;BME280;49700;48.072;7.800;2023-01-31T02:04:25;100702.59;;;1.34;72.50
63556;BME280;49700;48.072;7.800;2023-01-31T02:06:56;100701.75;;;1.35;72.43
63556;BME280;49700;48.072;7.800;2023-01-31T02:12:20;100693.09;;;1.36;72.40
63556;BME280;49700;48.072;7.800;2023-01-31T02:14:57;100687.03;;;1.37;72.67
63556;BME280;49700;48.072;7.800;2023-01-31T02:17:37;100677.53;;;1.39;72.46
63556;BME280;49700;48.072;7.800;2023-01-31T02:20:14;100685.28;;;1.42;72.60
63556;BME280;49700;48.072;7.800;2023-01-31T02:23:30;100680.94;;;1.43;72.39
63556;BME280;49700;48.072;7.800;2023-01-31T02:31:59;100681.00;;;1.37;72.65
63556;BME280;49700;48.072;7.800;2023-01-31T02:37:28;100685.41;;;1.28;72.70
63556;BME280;49700;48.072;7.800;2023-01-31T02:42:53;100685.41;;;1.27;72.95
63556;BME280;49700;48.072;7.800;2023-01-31T02:45:40;100681.09;;;1.26;72.73
63556;BME280;49700;48.072;7.800;2023-01-31T02:50:48;100697.47;;;1.28;72.50
63556;BME280;49700;48.072;7.800;2023-01-31T02:53:54;100707.00;;;1.24;72.69
63556;BME280;49700;48.072;7.800;2023-01-31T02:56:27;100705.28;;;1.25;72.68
63556;BME280;49700;48.072;7.800;2023-01-31T02:59:16;100709.63;;;1.20;72.48
63556;BME280;49700;48.072;7.800;2023-01-31T03:01:59;100708.81;;;1.16;72.67
63556;BME280;49700;48.072;7.800;2023-01-31T03:04:30;100695.00;;;1.13;72.86
63556;BME280;49700;48.072;7.800;2023-01-31T03:07:01;100692.41;;;1.13;72.40
63556;BME280;49700;48.072;7.800;2023-01-31T03:09:39;100694.19;;;1.07;72.83
63556;BME280;49700;48.072;7.800;2023-01-31T03:12:46;100701.97;;;1.04;72.89
63556;BME280;49700;48.072;7.800;2023-01-31T03:15:42;100702.84;;;1.03;72.87
63556;BME280;49700;48.072;7.800;2023-01-31T03:18:40;100710.63;;;1.00;72.58
63556;BME280;49700;48.072;7.800;2023-01-31T03:21:16;100710.63;;;0.99;72.56
63556;BME280;49700;48.072;7.800;2023-01-31T03:23:53;100708.94;;;0.98;72.66
63556;BME280;49700;48.072;7.800;2023-01-31T03:26:29;100702.88;;;0.97;72.73
63556;BME280;49700;48.072;7.800;2023-01-31T03:28:59;100715.81;;;0.97;72.74
63556;BME280;49700;48.072;7.800;2023-01-31T03:31:36;100708.91;;;0.96;72.78
63556;BME280;49700;48.072;7.800;2023-01-31T03:34:08;100721.88;;;0.93;72.81
63556;BME280;49700;48.072;7.800;2023-01-31T03:42:54;100725.31;;;0.95;72.61
63556;BME280;49700;48.072;7.800;2023-01-31T03:45:38;100715.84;;;0.91;72.69
63556;BME280;49700;48.072;7.800;2023-01-31T03:48:07;100715.03;;;0.83;72.72
63556;BME280;49700;48.072;7.800;2023-01-31T03:50:52;100705.63;;;0.74;72.75
63556;BME280;49700;48.072;7.800;2023-01-31T03:56:13;100705.69;;;0.65;73.08
63556;BME280;49700;48.072;7.800;2023-01-31T03:58:50;100709.13;;;0.61;73.03
63556;BME280;49700;48.072;7.800;2023-01-31T04:01:19;100699.66;;;0.58;73.13
63556;BME280;49700;48.072;7.800;2023-01-31T04:03:54;100694.50;;;0.58;73.33
63556;BME280;49700;48.072;7.800;2023-01-31T04:06:20;100694.50;;;0.58;73.22
63556;BME280;49700;48.072;7.800;2023-01-31T04:08:49;100692.78;;;0.57;73.23
63556;BME280;49700;48.072;7.800;2023-01-31T04:11:14;100685.03;;;0.56;73.30
63556;BME280;49700;48.072;7.800;2023-01-31T04:13:44;100684.19;;;0.52;73.30
63556;BME280;49700;48.072;7.800;2023-01-31T04:16:12;100695.38;;;0.51;73.11
63556;BME280;49700;48.072;7.800;2023-01-31T04:18:44;100687.63;;;0.53;73.46
63556;BME280;49700;48.072;7.800;2023-01-31T04:21:12;100704.00;;;0.53;73.25
63556;BME280;49700;48.072;7.800;2023-01-31T04:23:40;100708.31;;;0.54;73.24
63556;BME280;49700;48.072;7.800;2023-01-31T04:26:06;100710.91;;;0.54;73.23
63556;BME280;49700;48.072;7.800;2023-01-31T04:28:31;100719.50;;;0.53;73.50
63556;BME280;49700;48.072;7.800;2023-01-31T04:31:01;100726.41;;;0.53;73.02
63556;BME280;49700;48.072;7.800;2023-01-31T04:33:27;100722.13;;;0.50;72.96
63556;BME280;49700;48.072;7.800;2023-01-31T04:35:52;100721.28;;;0.47;73.24
63556;BME280;49700;48.072;7.800;2023-01-31T04:38:20;100723.00;;;0.44;73.09
63556;BME280;49700;48.072;7.800;2023-01-31T04:40:59;100723.03;;;0.41;73.23
63556;BME280;49700;48.072;7.800;2023-01-31T04:43:24;100729.06;;;0.36;73.03
63556;BME280;49700;48.072;7.800;2023-01-31T04:45:50;100726.50;;;0.28;73.12
63556;BME280;49700;48.072;7.800;2023-01-31T04:48:28;100738.59;;;0.25;73.48
63556;BME280;49700;48.072;7.800;2023-01-31T04:50:54;100732.56;;;0.21;73.02
63556;BME280;49700;48.072;7.800;2023-01-31T04:53:27;100735.16;;;0.19;73.50
63556;BME280;49700;48.072;7.800;2023-01-31T04:55:53;100730.00;;;0.18;73.36
63556;BME280;49700;48.072;7.800;2023-01-31T04:58:22;100735.16;;;0.13;73.41
63556;BME280;49700;48.072;7.800;2023-01-31T05:00:55;100735.19;;;0.09;73.38
63556;BME280;49700;48.072;7.800;2023-01-31T05:03:32;100729.16;;;0.07;73.31
63556;BME280;49700;48.072;7.800;2023-01-31T05:06:10;100731.78;;;0.01;73.32
63556;BME280;49700;48.072;7.800;2023-01-31T05:08:49;100736.09;;;0.00;73.52
63556;BME280;49700;48.072;7.800;2023-01-31T05:11:17;100736.91;;;0.02;73.62
63556;BME280;49700;48.072;7.800;2023-01-31T05:13:45;100732.63;;;0.06;73.57
63556;BME280;49700;48.072;7.800;2023-01-31T05:16:12;100734.34;;;0.08;73.46
63556;BME280;49700;48.072;7.800;2023-01-31T05:18:50;100735.16;;;0.10;73.51
63556;BME280;49700;48.072;7.800;2023-01-31T05:21:22;100724.84;;;0.10;73.40
63556;BME280;49700;48.072;7.800;2023-01-31T05:23:58;100723.13;;;0.08;73.03
63556;BME280;49700;48.072;7.800;2023-01-31T05:26:33;100725.72;;;0.06;73.52
63556;BME280;49700;48.072;7.800;2023-01-31T05:29:08;100727.44;;;0.04;72.98
63556;BME280;49700;48.072;7.800;2023-01-31T05:31:52;100715.41;;;0.00;73.29
63556;BME280;49700;48.072;7.800;2023-01-31T05:34:28;100718.00;;;-0.02;73.32
63556;BME280;49700;48.072;7.800;2023-01-31T05:37:09;100723.16;;;-0.03;73.53
63556;BME280;49700;48.072;7.800;2023-01-31T05:39:37;100725.78;;;-0.11;73.32
63556;BME280;49700;48.072;7.800;2023-01-31T05:42:03;100729.22;;;-0.19;73.36
63556;BME280;49700;48.072;7.800;2023-01-31T05:44:33;100717.19;;;-0.27;73.41
63556;BME280;49700;48.072;7.800;2023-01-31T05:47:02;100717.19;;;-0.28;73.63
63556;BME280;49700;48.072;7.800;2023-01-31T05:49:30;100729.22;;;-0.27;73.67
63556;BME280;49700;48.072;7.800;2023-01-31T05:52:07;100724.91;;;-0.25;73.82
63556;BME280;49700;48.072;7.800;2023-01-31T05:54:40;100729.22;;;-0.23;73.47
63556;BME280;49700;48.072;7.800;2023-01-31T05:57:13;100733.53;;;-0.20;73.47
63556;BME280;49700;48.072;7.800;2023-01-31T06:00:04;100735.25;;;-0.17;73.34
63556;BME280;49700;48.072;7.800;2023-01-31T06:02:37;100739.56;;;-0.18;73.29
63556;BME280;49700;48.072;7.800;2023-01-31T06:05:13;100744.69;;;-0.19;73.25
63556;BME280;49700;48.072;7.800;2023-01-31T06:07:51;100746.44;;;-0.21;73.28
63556;BME280;49700;48.072;7.800;2023-01-31T06:10:19;100755.06;;;-0.21;73.43
63556;BME280;49700;48.072;7.800;2023-01-31T06:12:44;100754.19;;;-0.23;73.42
63556;BME280;49700;48.072;7.800;2023-01-31T06:15:10;100758.50;;;-0.24;73.36
63556;BME280;49700;48.072;7.800;2023-01-31T06:17:36;100758.50;;;-0.27;73.37
63556;BME280;49700;48.072;7.800;2023-01-31T06:20:13;100765.38;;;-0.29;73.13
63556;BME280;49700;48.072;7.800;2023-01-31T06:22:41;100769.69;;;-0.29;73.41
63556;BME280;49700;48.072;7.800;2023-01-31T06:25:07;100773.13;;;-0.30;73.57
63556;BME280;49700;48.072;7.800;2023-01-31T06:27:33;100768.84;;;-0.30;73.19
63556;BME280;49700;48.072;7.800;2023-01-31T06:29:59;100772.25;;;-0.31;73.58
63556;BME280;49700;48.072;7.800;2023-01-31T06:32:24;100773.13;;;-0.32;73.21
63556;BME280;49700;48.072;7.800;2023-01-31T06:34:52;100773.13;;;-0.33;73.03
63556;BME280;49700;48.072;7.800;2023-01-31T06:37:26;100773.13;;;-0.38;73.12
63556;BME280;49700;48.072;7.800;2023-01-31T06:39:57;100772.25;;;-0.41;73.18
63556;BME280;49700;48.072;7.800;2023-01-31T06:42:23;100758.50;;;-0.45;73.21
63556;BME280;49700;48.072;7.800;2023-01-31T06:44:49;100763.66;;;-0.47;73.43
63556;BME280;49700;48.072;7.800;2023-01-31T06:47:17;100773.97;;;-0.47;73.46
63556;BME280;49700;48.072;7.800;2023-01-31T06:49:46;100776.56;;;-0.45;73.24
63556;BME280;49700;48.072;7.800;2023-01-31T06:52:21;100773.13;;;-0.46;73.66
63556;BME280;49700;48.072;7.800;2023-01-31T06:55:10;100777.44;;;-0.43;73.84
63556;BME280;49700;48.072;7.800;2023-01-31T06:57:46;100774.88;;;-0.43;73.64
63556;BME280;49700;48.072;7.800;2023-01-31T07:00:20;100780.00;;;-0.41;73.79
63556;BME280;49700;48.072;7.800;2023-01-31T07:02:49;100771.41;;;-0.40;73.57
63556;BME280;49700;48.072;7.800;2023-01-31T07:05:24;100769.69;;;-0.41;74.12
63556;BME280;49700;48.072;7.800;2023-01-31T07:08:07;100783.47;;;-0.42;74.06
63556;BME280;49700;48.072;7.800;2023-01-31T07:10:47;100772.25;;;-0.41;74.16
63556;BME280;49700;48.072;7.800;2023-01-31T07:13:47;100777.44;;;-0.37;73.98
63556;BME280;49700;48.072;7.800;2023-01-31T07:17:07;100776.56;;;-0.34;73.80
63556;BME280;49700;48.072;7.800;2023-01-31T07:19:43;100775.72;;;-0.32;73.70
63556;BME280;49700;48.072;7.800;2023-01-31T07:22:21;100780.00;;;-0.25;73.82
63556;BME280;49700;48.072;7.800;2023-01-31T07:24:49;100779.13;;;-0.17;73.53
63556;BME280;49700;48.072;7.800;2023-01-31T07:27:17;100763.66;;;-0.13;73.78
63556;BME280;49700;48.072;7.800;2023-01-31T07:29:53;100781.72;;;-0.07;73.76
63556;BME280;49700;48.072;7.800;2023-01-31T07:32:31;100779.13;;;0.01;73.43
63556;BME280;49700;48.072;7.800;2023-01-31T07:35:07;100781.69;;;0.07;73.50
63556;BME280;49700;48.072;7.800;2023-01-31T07:37:33;100783.38;;;0.16;73.51
63556;BME280;49700;48.072;7.800;2023-01-31T07:39:58;100785.09;;;0.26;73.21
63556;BME280;49700;48.072;7.800;2023-01-31T07:42:27;100791.06;;;0.37;73.17
63556;BME280;49700;48.072;7.800;2023-01-31T07:44:53;100789.31;;;0.50;73.09
63556;BME280;49700;48.072;7.800;2023-01-31T07:47:28;100787.53;;;0.64;72.61
63556;BME280;49700;48.072;7.800;2023-01-31T07:49:56;100795.25;;;0.80;72.35
63556;BME280;49700;48.072;7.800;2023-01-31T07:52:21;100784.84;;;0.92;72.36
63556;BME280;49700;48.072;7.800;2023-01-31T07:54:49;100774.44;;;1.01;71.95
63556;BME280;49700;48.072;7.800;2023-01-31T07:57:15;100776.94;;;1.10;71.95
63556;BME280;49700;48.072;7.800;2023-01-31T07:59:44;100780.38;;;1.16;72.14
63556;BME280;49700;48.072;7.800;2023-01-31T08:02:13;100789.81;;;1.21;72.05
63556;BME280;49700;48.072;7.800;2023-01-31T08:04:58;100794.09;;;1.27;72.10
63556;BME280;49700;48.072;7.800;2023-01-31T08:07:25;100790.63;;;1.31;71.71
63556;BME280;49700;48.072;7.800;2023-01-31T08:09:51;100794.91;;;1.37;71.74
63556;BME280;49700;48.072;7.800;2023-01-31T08:12:16;100798.34;;;1.39;71.80
63556;BME280;49700;48.072;7.800;2023-01-31T08:14:42;100798.34;;;1.39;72.09
63556;BME280;49700;48.072;7.800;2023-01-31T08:17:08;100799.19;;;1.42;72.19
63556;BME280;49700;48.072;7.800;2023-01-31T08:19:34;100802.63;;;1.44;72.29
63556;BME280;49700;48.072;7.800;2023-01-31T08:22:00;100805.19;;;1.49;72.64
63556;BME280;49700;48.072;7.800;2023-01-31T08:24:26;100795.66;;;1.52;72.86
63556;BME280;49700;48.072;7.800;2023-01-31T08:26:51;100793.03;;;1.57;73.00
63556;BME280;49700;48.072;7.800;2023-01-31T08:29:17;100783.50;;;1.61;72.84
63556;BME280;49700;48.072;7.800;2023-01-31T08:31:42;100791.22;;;1.67;72.95
63556;BME280;49700;48.072;7.800;2023-01-31T08:34:08;100790.31;;;1.74;72.82
63556;BME280;49700;48.072;7.800;2023-01-31T08:36:34;100786.81;;;1.81;72.72
63556;BME280;49700;48.072;7.800;2023-01-31T08:39:00;100787.63;;;1.85;72.93
63556;BME280;49700;48.072;7.800;2023-01-31T08:41:27;100784.13;;;1.90;72.82
63556;BME280;49700;48.072;7.800;2023-01-31T08:43:53;100785.78;;;1.96;72.83
63556;BME280;49700;48.072;7.800;2023-01-31T08:46:20;100776.25;;;2.03;73.11
63556;BME280;49700;48.072;7.800;2023-01-31T08:48:46;100781.34;;;2.07;73.00
63556;BME280;49700;48.072;7.800;2023-01-31T08:51:12;100792.53;;;2.14;72.87
63556;BME280;49700;48.072;7.800;2023-01-31T08:53:39;100782.06;;;2.23;72.87
63556;BME280;49700;48.072;7.800;2023-01-31T08:56:09;100786.25;;;2.35;72.24
63556;BME280;49700;48.072;7.800;2023-01-31T08:58:39;100793.91;;;2.49;72.50
63556;BME280;49700;48.072;7.800;2023-01-31T09:01:09;100782.50;;;2.62;71.94
63556;BME280;49700;48.072;7.800;2023-01-31T09:03:35;100790.75;;;2.93;72.13
63556;BME280;49700;48.072;7.800;2023-01-31T09:06:03;100790.34;;;3.78;70.99
63556;BME280;49700;48.072;7.800;2023-01-31T09:08:29;100776.78;;;4.97;68.73
63556;BME280;49700;48.072;7.800;2023-01-31T09:10:56;100771.19;;;6.22;65.43
63556;BME280;49700;48.072;7.800;2023-01-31T09:13:22;100769.94;;;7.24;62.39
63556;BME280;49700;48.072;7.800;2023-01-31T09:18:23;100758.81;;;7.97;57.65
63556;BME280;49700;48.072;7.800;2023-01-31T09:20:49;100758.13;;;8.42;55.81
63556;BME280;49700;48.072;7.800;2023-01-31T09:23:14;100748.53;;;9.12;53.78
63556;BME280;49700;48.072;7.800;2023-01-31T09:25:43;100744.06;;;9.78;51.79
63556;BME280;49700;48.072;7.800;2023-01-31T09:28:12;100748.59;;;10.15;50.28
63556;BME280;49700;48.072;7.800;2023-01-31T09:30:37;100739.16;;;10.32;49.60
63556;BME280;49700;48.072;7.800;2023-01-31T09:33:02;100736.44;;;10.54;48.57
63556;BME280;49700;48.072;7.800;2023-01-31T09:35:28;100734.66;;;10.73;47.91
63556;BME280;49700;48.072;7.800;2023-01-31T09:37:53;100726.94;;;11.06;47.34
63556;BME280;49700;48.072;7.800;2023-01-31T09:40:21;100731.94;;;11.13;46.83
63556;BME280;49700;48.072;7.800;2023-01-31T09:42:49;100730.47;;;11.24;46.70
63556;BME280;49700;48.072;7.800;2023-01-31T09:45:28;100726.16;;;11.41;46.14
63556;BME280;49700;48.072;7.800;2023-01-31T09:47:55;100726.16;;;11.23;46.23
63556;BME280;49700;48.072;7.800;2023-01-31T09:52:51;100740.03;;;10.51;47.86
63556;BME280;49700;48.072;7.800;2023-01-31T09:55:20;100737.16;;;9.96;49.31
63556;BME280;49700;48.072;7.800;2023-01-31T09:57:51;100740.09;;;9.47;50.74
63556;BME280;49700;48.072;7.800;2023-01-31T10:00:31;100744.88;;;9.16;51.65
63556;BME280;49700;48.072;7.800;2023-01-31T10:03:58;100754.72;;;9.09;52.02
63556;BME280;49700;48.072;7.800;2023-01-31T10:06:18;100755.06;;;8.78;52.97
63556;BME280;49700;48.072;7.800;2023-01-31T10:09:05;100760.25;;;8.31;54.26
63556;BME280;49700;48.072;7.800;2023-01-31T10:14:30;100765.97;;;7.92;55.29
63556;BME280;49700;48.072;7.800;2023-01-31T10:25:18;100783.38;;;6.82;58.67
63556;BME280;49700;48.072;7.800;2023-01-31T10:27:54;100779.38;;;6.70;58.75
63556;BME280;49700;48.072;7.800;2023-01-31T10:30:25;100777.13;;;6.58;59.11
63556;BME280;49700;48.072;7.800;2023-01-31T10:32:56;100780.13;;;6.44;59.44
63556;BME280;49700;48.072;7.800;2023-01-31T10:35:33;100778.06;;;6.24;59.86
63556;BME280;49700;48.072;7.800;2023-01-31T10:38:13;100768.94;;;6.08;60.54
63556;BME280;49700;48.072;7.800;2023-01-31T10:40:43;100754.41;;;5.97;61.03
63556;BME280;49700;48.072;7.800;2023-01-31T10:43:19;100746.75;;;5.91;61.26
63556;BME280;49700;48.072;7.800;2023-01-31T10:45:45;100743.41;;;5.85;61.29
63556;BME280;49700;48.072;7.800;2023-01-31T10:48:16;100742.72;;;5.78;61.67
63556;BME280;49700;48.072;7.800;2023-01-31T10:56:46;100768.34;;;5.61;61.48
63556;BME280;49700;48.072;7.800;2023-01-31T10:59:24;100781.19;;;5.68;61.81
63556;BME280;49700;48.072;7.800;2023-01-31T11:01:55;100787.97;;;5.75;61.39
63556;BME280;49700;48.072;7.800;2023-01-31T11:04:39;100782.41;;;5.89;61.64
63556;BME280;49700;48.072;7.800;2023-01-31T11:07:07;100778.56;;;6.04;61.33
63556;BME280;49700;48.072;7.800;2023-01-31T11:09:42;100768.59;;;6.20;61.31
63556;BME280;49700;48.072;7.800;2023-01-31T11:12:08;100771.81;;;6.30;60.74
63556;BME280;49700;48.072;7.800;2023-01-31T11:14:41;100759.53;;;6.33;60.64
63556;BME280;49700;48.072;7.800;2023-01-31T11:17:24;100749.09;;;6.33;60.25
63556;BME280;49700;48.072;7.800;2023-01-31T11:19:57;100744.81;;;6.31;60.54
63556;BME280;49700;48.072;7.800;2023-01-31T11:22:37;100743.97;;;6.30;60.89
63556;BME280;49700;48.072;7.800;2023-01-31T11:25:05;100747.41;;;6.32;60.69
63556;BME280;49700;48.072;7.800;2023-01-31T11:27:42;100761.19;;;6.37;60.80
63556;BME280;49700;48.072;7.800;2023-01-31T11:32:53;100750.03;;;6.62;60.88
63556;BME280;49700;48.072;7.800;2023-01-31T11:35:24;100752.16;;;6.79;60.63
63556;BME280;49700;48.072;7.800;2023-01-31T11:38:01;100753.59;;;6.89;59.93
63556;BME280;49700;48.072;7.800;2023-01-31T11:40:35;100748.31;;;6.91;59.49
63556;BME280;49700;48.072;7.800;2023-01-31T11:43:05;100745.78;;;6.87;59.55
63556;BME280;49700;48.072;7.800;2023-01-31T11:45:35;100745.88;;;6.84;59.18
63556;BME280;49700;48.072;7.800;2023-01-31T11:48:17;100731.28;;;6.77;59.26
63556;BME280;49700;48.072;7.800;2023-01-31T11:50:53;100732.09;;;6.79;58.96
63556;BME280;49700;48.072;7.800;2023-01-31T11:53:26;100728.31;;;6.90;59.13
63556;BME280;49700;48.072;7.800;2023-01-31T11:55:57;100722.88;;;6.97;58.49
63556;BME280;49700;48.072;7.800;2023-01-31T11:58:35;100714.97;;;6.99;58.37
63556;BME280;49700;48.072;7.800;2023-01-31T12:01:12;100708.03;;;6.98;58.74
63556;BME280;49700;48.072;7.800;2023-01-31T12:03:46;100682.66;;;7.01;58.42
63556;BME280;49700;48.072;7.800;2023-01-31T12:06:25;100685.03;;;7.09;58.40
63556;BME280;49700;48.072;7.800;2023-01-31T12:08:56;100664.47;;;7.26;58.29
63556;BME280;49700;48.072;7.800;2023-01-31T12:11:28;100665.34;;;7.52;57.52
63556;BME280;49700;48.072;7.800;2023-01-31T12:14:20;100661.28;;;7.68;56.86
63556;BME280;49700;48.072;7.800;2023-01-31T12:16:47;100659.47;;;7.70;56.86
63556;BME280;49700;48.072;7.800;2023-01-31T12:30:24;100634.91;;;7.49;56.97
63556;BME280;49700;48.072;7.800;2023-01-31T12:33:14;100634.91;;;7.49;56.23
63556;BME280;49700;48.072;7.800;2023-01-31T12:36:10;100634.13;;;7.47;56.52
63556;BME280;49700;48.072;7.800;2023-01-31T12:41:38;100635.72;;;7.51;56.36
63556;BME280;49700;48.072;7.800;2023-01-31T12:44:37;100642.50;;;7.57;56.08
63556;BME280;49700;48.072;7.800;2023-01-31T12:47:16;100633.75;;;7.58;56.22
63556;BME280;49700;48.072;7.800;2023-01-31T12:50:00;100638.81;;;7.63;56.11
63556;BME280;49700;48.072;7.800;2023-01-31T13:01:00;100613.47;;;7.65;55.65
63556;BME280;49700;48.072;7.800;2023-01-31T13:03:54;100601.38;;;7.62;55.71
63556;BME280;49700;48.072;7.800;2023-01-31T13:06:30;100596.13;;;7.62;55.78
63556;BME280;49700;48.072;7.800;2023-01-31T13:09:02;100610.91;;;7.63;56.07
63556;BME280;49700;48.072;7.800;2023-01-31T13:11:43;100603.91;;;7.64;55.64
63556;BME280;49700;48.072;7.800;2023-01-31T13:14:20;100605.69;;;7.63;55.41
63556;BME280;49700;48.072;7.800;2023-01-31T13:16:51;100610.00;;;7.64;55.71
63556;BME280;49700;48.072;7.800;2023-01-31T13:19:28;100602.06;;;7.67;55.61
63556;BME280;49700;48.072;7.800;2023-01-31T13:22:02;100600.19;;;7.71;55.43
63556;BME280;49700;48.072;7.800;2023-01-31T13:24:39;100595.91;;;7.68;55.65
63556;BME280;49700;48.072;7.800;2023-01-31T13:27:20;100595.78;;;7.71;55.58
63556;BME280;49700;48.072;7.800;2023-01-31T13:30:00;100590.44;;;7.74;55.50
63556;BME280;49700;48.072;7.800;2023-01-31T13:32:35;100585.19;;;7.76;55.43
63556;BME280;49700;48.072;7.800;2023-01-31T13:35:24;100590.41;;;7.76;54.94
63556;BME280;49700;48.072;7.800;2023-01-31T13:37:54;100586.94;;;7.75;54.85
63556;BME280;49700;48.072;7.800;2023-01-31T13:40:25;100590.44;;;7.74;55.06
63556;BME280;49700;48.072;7.800;2023-01-31T13:42:51;100574.81;;;7.73;54.96
63556;BME280;49700;48.072;7.800;2023-01-31T13:45:22;100571.25;;;7.75;54.79
63556;BME280;49700;48.072;7.800;2023-01-31T13:47:52;100570.22;;;7.80;54.57
63556;BME280;49700;48.072;7.800;2023-01-31T13:50:46;100573.50;;;7.85;54.30
63556;BME280;49700;48.072;7.800;2023-01-31T13:53:28;100567.19;;;7.90;54.07
63556;BME280;49700;48.072;7.800;2023-01-31T13:55:55;100554.06;;;7.92;53.95
63556;BME280;49700;48.072;7.800;2023-01-31T13:58:24;100544.41;;;7.94;53.73
63556;BME280;49700;48.072;7.800;2023-01-31T14:01:05;100533.16;;;7.92;53.69
63556;BME280;49700;48.072;7.800;2023-01-31T14:14:52;100525.75;;;7.80;54.13
63556;BME280;49700;48.072;7.800;2023-01-31T14:22:33;100528.09;;;7.87;54.14
63556;BME280;49700;48.072;7.800;2023-01-31T14:27:40;100521.94;;;7.88;53.98
63556;BME280;49700;48.072;7.800;2023-01-31T14:30:10;100509.78;;;7.87;53.89
63556;BME280;49700;48.072;7.800;2023-01-31T14:32:45;100510.63;;;7.88;53.83
63556;BME280;49700;48.072;7.800;2023-01-31T14:38:01;100498.75;;;7.79;53.57
63556;BME280;49700;48.072;7.800;2023-01-31T14:47:03;100515.47;;;7.75;54.04
63556;BME280;49700;48.072;7.800;2023-01-31T14:49:27;100507.69;;;7.73;54.20
63556;BME280;49700;48.072;7.800;2023-01-31T14:57:48;100513.34;;;7.61;55.91
63556;BME280;49700;48.072;7.800;2023-01-31T15:00:19;100521.38;;;7.57;55.72
63556;BME280;49700;48.072;7.800;2023-01-31T15:02:52;100513.59;;;7.55;55.67
63556;BME280;49700;48.072;7.800;2023-01-31T15:14:37;100491.53;;;7.39;56.53
63556;BME280;49700;48.072;7.800;2023-01-31T15:16:31;100488.34;;;7.30;56.74
63556;BME280;49700;48.072;7.800;2023-01-31T15:19:11;100503.28;;;7.27;56.80
63556;BME280;49700;48.072;7.800;2023-01-31T15:21:43;100521.63;;;7.25;56.93
63556;BME280;49700;48.072;7.800;2023-01-31T15:24:17;100526.75;;;7.28;56.88